sensor_id;sensor_type;location;lat;lon;timestamp;temperature;humidity
52275;DHT22;38228;50.940;4.024;2022-09-14T00:01:12;18.30;99.90
52275;DHT22;38228;50.940;4.024;2022-09-14T00:03:38;18.30;99.90
52275;DHT22;38228;50.940;4.024;2022-09-14T00:06:11;18.30;99.90
52275;DHT22;38228;50.940;4.024;2022-09-14T00:08:38;18.30;99.90
52275;DHT22;38228;50.940;4.024;2022-09-14T00:11:12;18.20;99.90
52275;DHT22;38228;50.940;4.024;2022-09-14T00:13:40;18.20;99.90
52275;DHT22;38228;50.940;4.024;2022-09-14T00:16:11;18.20;99.90
52275;DHT22;38228;50.940;4.024;2022-09-14T00:18:37;18.10;99.90
52275;DHT22;38228;50.940;4.024;2022-09-14T00:21:05;18.10;99.90
52275;DHT22;38228;50.940;4.024;2022-09-14T00:23:34;18.10;99.90
52275;DHT22;38228;50.940;4.024;2022-09-14T00:26:09;18.10;99.90
52275;DHT22;38228;50.940;4.024;2022-09-14T00:28:44;18.00;99.90
52275;DHT22;38228;50.940;4.024;2022-09-14T00:31:11;17.80;99.90
52275;DHT22;38228;50.940;4.024;2022-09-14T00:33:37;17.80;99.90
52275;DHT22;38228;50.940;4.024;2022-09-14T00:36:09;17.80;99.90
52275;DHT22;38228;50.940;4.024;2022-09-14T00:38:35;17.80;99.90
52275;DHT22;38228;50.940;4.024;2022-09-14T00:41:02;17.80;99.90
52275;DHT22;38228;50.940;4.024;2022-09-14T00:43:28;17.80;99.90
52275;DHT22;38228;50.940;4.024;2022-09-14T00:45:54;17.80;99.90
52275;DHT22;38228;50.940;4.024;2022-09-14T00:48:21;17.90;99.90
52275;DHT22;38228;50.940;4.024;2022-09-14T00:50:48;17.80;99.90
52275;DHT22;38228;50.940;4.024;2022-09-14T00:53:14;17.90;99.90
52275;DHT22;38228;50.940;4.024;2022-09-14T00:55:40;18.00;99.90
52275;DHT22;38228;50.940;4.024;2022-09-14T00:58:06;18.00;99.90
52275;DHT22;38228;50.940;4.024;2022-09-14T01:00:32;18.00;99.90
52275;DHT22;38228;50.940;4.024;2022-09-14T01:02:58;17.90;99.90
52275;DHT22;38228;50.940;4.024;2022-09-14T01:08:24;18.10;99.90
52275;DHT22;38228;50.940;4.024;2022-09-14T01:11:06;18.00;99.90
52275;DHT22;38228;50.940;4.024;2022-09-14T01:13:39;18.00;99.90
52275;DHT22;38228;50.940;4.024;2022-09-14T01:16:29;18.00;99.90
52275;DHT22;38228;50.940;4.024;2022-09-14T01:19:05;17.90;99.90
52275;DHT22;38228;50.940;4.024;2022-09-14T01:21:36;17.90;99.90
52275;DHT22;38228;50.940;4.024;2022-09-14T01:24:27;17.90;99.90
52275;DHT22;38228;50.940;4.024;2022-09-14T01:32:20;18.00;99.90
52275;DHT22;38228;50.940;4.024;2022-09-14T01:37:55;17.90;99.90
52275;DHT22;38228;50.940;4.024;2022-09-14T01:40:39;18.00;99.90
52275;DHT22;38228;50.940;4.024;2022-09-14T01:43:37;18.00;99.90
52275;DHT22;38228;50.940;4.024;2022-09-14T01:46:19;17.90;99.90
52275;DHT22;38228;50.940;4.024;2022-09-14T01:54:25;18.00;99.90
52275;DHT22;38228;50.940;4.024;2022-09-14T01:57:17;18.00;99.90
52275;DHT22;38228;50.940;4.024;2022-09-14T01:59:44;18.10;99.90
52275;DHT22;38228;50.940;4.024;2022-09-14T02:02:17;18.10;99.90
52275;DHT22;38228;50.940;4.024;2022-09-14T02:04:48;18.10;99.90
52275;DHT22;38228;50.940;4.024;2022-09-14T02:07:15;18.10;99.90
52275;DHT22;38228;50.940;4.024;2022-09-14T02:09:41;18.10;99.90
52275;DHT22;38228;50.940;4.024;2022-09-14T02:12:07;18.00;99.90
52275;DHT22;38228;50.940;4.024;2022-09-14T02:14:33;18.00;99.90
52275;DHT22;38228;50.940;4.024;2022-09-14T02:16:59;18.00;99.90
52275;DHT22;38228;50.940;4.024;2022-09-14T02:19:30;18.00;99.90
52275;DHT22;38228;50.940;4.024;2022-09-14T02:21:58;18.00;99.90
52275;DHT22;38228;50.940;4.024;2022-09-14T02:24:24;18.00;99.90
52275;DHT22;38228;50.940;4.024;2022-09-14T02:26:51;17.90;99.90
52275;DHT22;38228;50.940;4.024;2022-09-14T02:29:18;17.90;99.90
52275;DHT22;38228;50.940;4.024;2022-09-14T02:32:08;18.00;99.90
52275;DHT22;38228;50.940;4.024;2022-09-14T02:40:29;17.80;99.90
52275;DHT22;38228;50.940;4.024;2022-09-14T02:48:56;17.80;99.90
52275;DHT22;38228;50.940;4.024;2022-09-14T02:51:38;17.90;99.90
52275;DHT22;38228;50.940;4.024;2022-09-14T02:54:07;17.90;99.90
52275;DHT22;38228;50.940;4.024;2022-09-14T02:56:34;17.70;99.90
52275;DHT22;38228;50.940;4.024;2022-09-14T02:59:00;17.70;99.90
52275;DHT22;38228;50.940;4.024;2022-09-14T03:01:26;17.50;99.90
52275;DHT22;38228;50.940;4.024;2022-09-14T03:03:52;17.70;99.90
52275;DHT22;38228;50.940;4.024;2022-09-14T03:06:18;17.70;99.90
52275;DHT22;38228;50.940;4.024;2022-09-14T03:08:44;17.80;99.90
52275;DHT22;38228;50.940;4.024;2022-09-14T03:11:09;17.70;99.90
52275;DHT22;38228;50.940;4.024;2022-09-14T03:13:35;17.80;99.90
52275;DHT22;38228;50.940;4.024;2022-09-14T03:16:13;17.70;99.90
52275;DHT22;38228;50.940;4.024;2022-09-14T03:18:39;17.60;99.90
52275;DHT22;38228;50.940;4.024;2022-09-14T03:21:14;17.50;99.90
52275;DHT22;38228;50.940;4.024;2022-09-14T03:23:44;17.50;99.90
52275;DHT22;38228;50.940;4.024;2022-09-14T03:26:15;17.60;99.90
52275;DHT22;38228;50.940;4.024;2022-09-14T03:28:41;17.60;99.90
52275;DHT22;38228;50.940;4.024;2022-09-14T03:31:09;17.50;99.90
52275;DHT22;38228;50.940;4.024;2022-09-14T03:33:35;17.50;99.90
52275;DHT22;38228;50.940;4.024;2022-09-14T03:36:16;17.40;99.90
52275;DHT22;38228;50.940;4.024;2022-09-14T03:38:46;17.40;99.90
52275;DHT22;38228;50.940;4.024;2022-09-14T03:41:13;17.50;99.90
52275;DHT22;38228;50.940;4.024;2022-09-14T03:43:39;17.70;99.90
52275;DHT22;38228;50.940;4.024;2022-09-14T03:48:31;18.00;99.90
52275;DHT22;38228;50.940;4.024;2022-09-14T03:51:00;18.00;99.90
52275;DHT22;38228;50.940;4.024;2022-09-14T03:53:26;17.90;99.90
52275;DHT22;38228;50.940;4.024;2022-09-14T03:55:52;18.00;99.90
52275;DHT22;38228;50.940;4.024;2022-09-14T03:58:18;17.90;99.90
52275;DHT22;38228;50.940;4.024;2022-09-14T04:00:43;17.70;99.90
52275;DHT22;38228;50.940;4.024;2022-09-14T04:03:09;17.60;99.90
52275;DHT22;38228;50.940;4.024;2022-09-14T04:05:34;17.50;99.90
52275;DHT22;38228;50.940;4.024;2022-09-14T04:08:00;17.40;99.90
52275;DHT22;38228;50.940;4.024;2022-09-14T04:10:26;17.30;99.90
52275;DHT22;38228;50.940;4.024;2022-09-14T04:12:52;17.10;99.90
52275;DHT22;38228;50.940;4.024;2022-09-14T04:15:18;17.00;99.90
52275;DHT22;38228;50.940;4.024;2022-09-14T04:17:43;17.10;99.90
52275;DHT22;38228;50.940;4.024;2022-09-14T04:20:09;17.00;99.90
52275;DHT22;38228;50.940;4.024;2022-09-14T04:22:35;17.00;99.90
52275;DHT22;38228;50.940;4.024;2022-09-14T04:25:01;16.90;99.90
52275;DHT22;38228;50.940;4.024;2022-09-14T04:27:26;16.80;99.90
52275;DHT22;38228;50.940;4.024;2022-09-14T04:29:52;16.80;99.90
52275;DHT22;38228;50.940;4.024;2022-09-14T04:32:18;16.90;99.90
52275;DHT22;38228;50.940;4.024;2022-09-14T04:34:43;16.90;99.90
52275;DHT22;38228;50.940;4.024;2022-09-14T04:37:09;16.90;99.90
52275;DHT22;38228;50.940;4.024;2022-09-14T04:39:34;16.80;99.90
52275;DHT22;38228;50.940;4.024;2022-09-14T04:42:00;16.70;99.90
52275;DHT22;38228;50.940;4.024;2022-09-14T04:44:26;16.70;99.90
52275;DHT22;38228;50.940;4.024;2022-09-14T04:46:52;16.80;99.90
52275;DHT22;38228;50.940;4.024;2022-09-14T04:49:17;16.60;99.90
52275;DHT22;38228;50.940;4.024;2022-09-14T04:51:43;16.60;99.90
52275;DHT22;38228;50.940;4.024;2022-09-14T04:54:13;16.60;99.90
52275;DHT22;38228;50.940;4.024;2022-09-14T04:56:39;16.50;99.90
52275;DHT22;38228;50.940;4.024;2022-09-14T04:59:05;16.50;99.90
52275;DHT22;38228;50.940;4.024;2022-09-14T05:01:39;16.40;99.90
52275;DHT22;38228;50.940;4.024;2022-09-14T05:04:07;16.50;99.90
52275;DHT22;38228;50.940;4.024;2022-09-14T05:06:34;16.40;99.90
52275;DHT22;38228;50.940;4.024;2022-09-14T05:09:02;16.40;99.90
52275;DHT22;38228;50.940;4.024;2022-09-14T05:11:31;16.40;99.90
52275;DHT22;38228;50.940;4.024;2022-09-14T05:13:58;16.40;99.90
52275;DHT22;38228;50.940;4.024;2022-09-14T05:16:27;16.30;99.90
52275;DHT22;38228;50.940;4.024;2022-09-14T05:18:54;16.40;99.90
52275;DHT22;38228;50.940;4.024;2022-09-14T05:21:22;16.30;99.90
52275;DHT22;38228;50.940;4.024;2022-09-14T05:23:56;16.20;99.90
52275;DHT22;38228;50.940;4.024;2022-09-14T05:26:24;16.20;99.90
52275;DHT22;38228;50.940;4.024;2022-09-14T05:28:51;16.20;99.90
52275;DHT22;38228;50.940;4.024;2022-09-14T05:31:17;16.10;99.90
52275;DHT22;38228;50.940;4.024;2022-09-14T05:33:43;16.20;99.90
52275;DHT22;38228;50.940;4.024;2022-09-14T05:36:09;16.20;99.90
52275;DHT22;38228;50.940;4.024;2022-09-14T05:38:36;16.20;99.90
52275;DHT22;38228;50.940;4.024;2022-09-14T05:41:03;16.20;99.90
52275;DHT22;38228;50.940;4.024;2022-09-14T05:43:29;16.20;99.90
52275;DHT22;38228;50.940;4.024;2022-09-14T05:45:59;16.30;99.90
52275;DHT22;38228;50.940;4.024;2022-09-14T05:48:25;16.40;99.90
52275;DHT22;38228;50.940;4.024;2022-09-14T05:50:57;16.40;99.90
52275;DHT22;38228;50.940;4.024;2022-09-14T05:53:23;16.50;99.90
52275;DHT22;38228;50.940;4.024;2022-09-14T05:56:07;16.60;99.90
52275;DHT22;38228;50.940;4.024;2022-09-14T05:58:34;16.70;99.90
52275;DHT22;38228;50.940;4.024;2022-09-14T06:01:11;16.70;99.90
52275;DHT22;38228;50.940;4.024;2022-09-14T06:03:38;16.70;99.90
52275;DHT22;38228;50.940;4.024;2022-09-14T06:06:06;16.70;99.90
52275;DHT22;38228;50.940;4.024;2022-09-14T06:08:33;16.90;99.90
52275;DHT22;38228;50.940;4.024;2022-09-14T06:11:03;17.20;99.90
52275;DHT22;38228;50.940;4.024;2022-09-14T06:13:29;17.30;99.90
52275;DHT22;38228;50.940;4.024;2022-09-14T06:15:55;17.30;99.90
52275;DHT22;38228;50.940;4.024;2022-09-14T06:18:20;17.30;99.90
52275;DHT22;38228;50.940;4.024;2022-09-14T06:20:50;17.50;99.90
52275;DHT22;38228;50.940;4.024;2022-09-14T06:23:16;17.60;99.90
52275;DHT22;38228;50.940;4.024;2022-09-14T06:25:42;17.70;99.90
52275;DHT22;38228;50.940;4.024;2022-09-14T06:28:07;17.70;99.90
52275;DHT22;38228;50.940;4.024;2022-09-14T06:30:33;17.60;99.90
52275;DHT22;38228;50.940;4.024;2022-09-14T06:32:59;17.70;99.90
52275;DHT22;38228;50.940;4.024;2022-09-14T06:35:24;17.70;99.90
52275;DHT22;38228;50.940;4.024;2022-09-14T06:37:51;17.70;99.90
52275;DHT22;38228;50.940;4.024;2022-09-14T06:40:17;17.70;99.90
52275;DHT22;38228;50.940;4.024;2022-09-14T06:42:42;17.60;99.90
52275;DHT22;38228;50.940;4.024;2022-09-14T06:45:08;17.60;99.90
52275;DHT22;38228;50.940;4.024;2022-09-14T06:47:34;17.60;99.90
52275;DHT22;38228;50.940;4.024;2022-09-14T06:50:00;17.50;99.90
52275;DHT22;38228;50.940;4.024;2022-09-14T06:52:25;17.50;99.90
52275;DHT22;38228;50.940;4.024;2022-09-14T06:54:51;17.50;99.90
52275;DHT22;38228;50.940;4.024;2022-09-14T06:57:17;17.60;99.90
52275;DHT22;38228;50.940;4.024;2022-09-14T06:59:42;17.60;99.90
52275;DHT22;38228;50.940;4.024;2022-09-14T07:02:11;17.80;99.90
52275;DHT22;38228;50.940;4.024;2022-09-14T07:04:37;17.60;99.90
52275;DHT22;38228;50.940;4.024;2022-09-14T07:07:03;17.60;99.90
52275;DHT22;38228;50.940;4.024;2022-09-14T07:09:29;17.70;99.90
52275;DHT22;38228;50.940;4.024;2022-09-14T07:11:56;17.60;99.90
52275;DHT22;38228;50.940;4.024;2022-09-14T07:14:21;17.70;99.90
52275;DHT22;38228;50.940;4.024;2022-09-14T07:16:47;17.70;99.90
52275;DHT22;38228;50.940;4.024;2022-09-14T07:19:13;17.70;99.90
52275;DHT22;38228;50.940;4.024;2022-09-14T07:21:40;17.80;99.90
52275;DHT22;38228;50.940;4.024;2022-09-14T07:24:06;17.80;99.90
52275;DHT22;38228;50.940;4.024;2022-09-14T07:26:39;17.80;99.90
52275;DHT22;38228;50.940;4.024;2022-09-14T07:29:10;17.70;99.90
52275;DHT22;38228;50.940;4.024;2022-09-14T07:31:43;17.80;99.90
52275;DHT22;38228;50.940;4.024;2022-09-14T07:34:10;17.70;99.90
52275;DHT22;38228;50.940;4.024;2022-09-14T07:36:36;17.80;99.90
52275;DHT22;38228;50.940;4.024;2022-09-14T07:39:06;17.80;99.90
52275;DHT22;38228;50.940;4.024;2022-09-14T07:41:33;17.90;99.90
52275;DHT22;38228;50.940;4.024;2022-09-14T07:44:01;17.80;99.90
52275;DHT22;38228;50.940;4.024;2022-09-14T07:46:28;17.60;99.90
52275;DHT22;38228;50.940;4.024;2022-09-14T07:48:56;17.70;99.90
52275;DHT22;38228;50.940;4.024;2022-09-14T07:51:23;17.90;99.90
52275;DHT22;38228;50.940;4.024;2022-09-14T07:53:49;17.90;99.90
52275;DHT22;38228;50.940;4.024;2022-09-14T07:56:15;17.90;99.90
52275;DHT22;38228;50.940;4.024;2022-09-14T07:58:41;17.90;99.90
52275;DHT22;38228;50.940;4.024;2022-09-14T08:01:13;17.80;99.90
52275;DHT22;38228;50.940;4.024;2022-09-14T08:03:43;17.80;99.90
52275;DHT22;38228;50.940;4.024;2022-09-14T08:06:21;17.80;99.90
52275;DHT22;38228;50.940;4.024;2022-09-14T08:08:48;17.70;99.90
52275;DHT22;38228;50.940;4.024;2022-09-14T08:11:36;17.70;99.90
52275;DHT22;38228;50.940;4.024;2022-09-14T08:14:05;17.60;99.90
52275;DHT22;38228;50.940;4.024;2022-09-14T08:16:34;17.40;99.90
52275;DHT22;38228;50.940;4.024;2022-09-14T08:19:03;17.40;99.90
52275;DHT22;38228;50.940;4.024;2022-09-14T08:21:30;17.30;99.90
52275;DHT22;38228;50.940;4.024;2022-09-14T08:23:56;17.10;99.90
52275;DHT22;38228;50.940;4.024;2022-09-14T08:26:23;17.00;99.90
52275;DHT22;38228;50.940;4.024;2022-09-14T08:28:50;17.10;99.90
52275;DHT22;38228;50.940;4.024;2022-09-14T08:31:21;17.10;99.90
52275;DHT22;38228;50.940;4.024;2022-09-14T08:33:57;17.40;99.90
52275;DHT22;38228;50.940;4.024;2022-09-14T08:36:25;17.50;99.90
52275;DHT22;38228;50.940;4.024;2022-09-14T08:38:51;17.50;99.90
52275;DHT22;38228;50.940;4.024;2022-09-14T08:43:48;17.10;99.90
52275;DHT22;38228;50.940;4.024;2022-09-14T08:46:32;17.00;99.90
52275;DHT22;38228;50.940;4.024;2022-09-14T08:49:00;17.00;99.90
52275;DHT22;38228;50.940;4.024;2022-09-14T08:51:27;16.90;99.90
52275;DHT22;38228;50.940;4.024;2022-09-14T08:53:55;17.00;99.90
52275;DHT22;38228;50.940;4.024;2022-09-14T08:56:32;17.10;99.90
52275;DHT22;38228;50.940;4.024;2022-09-14T09:00:19;17.00;99.90
52275;DHT22;38228;50.940;4.024;2022-09-14T09:08:15;17.20;99.90
52275;DHT22;38228;50.940;4.024;2022-09-14T09:10:43;17.20;99.90
52275;DHT22;38228;50.940;4.024;2022-09-14T09:13:13;17.40;99.90
52275;DHT22;38228;50.940;4.024;2022-09-14T09:15:51;17.70;99.90
52275;DHT22;38228;50.940;4.024;2022-09-14T09:18:33;17.70;99.90
52275;DHT22;38228;50.940;4.024;2022-09-14T09:21:05;17.70;99.90
52275;DHT22;38228;50.940;4.024;2022-09-14T09:23:33;17.60;99.90
52275;DHT22;38228;50.940;4.024;2022-09-14T09:28:50;17.20;99.90
52275;DHT22;38228;50.940;4.024;2022-09-14T09:31:17;17.10;99.90
52275;DHT22;38228;50.940;4.024;2022-09-14T09:33:47;17.30;99.90
52275;DHT22;38228;50.940;4.024;2022-09-14T09:36:13;17.40;99.90
52275;DHT22;38228;50.940;4.024;2022-09-14T09:38:40;17.50;99.90
52275;DHT22;38228;50.940;4.024;2022-09-14T09:41:20;17.40;99.90
52275;DHT22;38228;50.940;4.024;2022-09-14T09:44:00;17.60;99.90
52275;DHT22;38228;50.940;4.024;2022-09-14T09:46:28;17.80;99.90
52275;DHT22;38228;50.940;4.024;2022-09-14T09:48:55;18.00;99.90
52275;DHT22;38228;50.940;4.024;2022-09-14T09:51:27;18.00;99.90
52275;DHT22;38228;50.940;4.024;2022-09-14T09:56:29;17.90;99.90
52275;DHT22;38228;50.940;4.024;2022-09-14T09:58:56;17.90;99.90
52275;DHT22;38228;50.940;4.024;2022-09-14T10:01:32;17.80;99.90
52275;DHT22;38228;50.940;4.024;2022-09-14T10:04:25;17.90;99.90
52275;DHT22;38228;50.940;4.024;2022-09-14T10:06:54;17.90;99.90
52275;DHT22;38228;50.940;4.024;2022-09-14T10:09:26;18.10;99.90
52275;DHT22;38228;50.940;4.024;2022-09-14T10:12:01;18.10;99.90
52275;DHT22;38228;50.940;4.024;2022-09-14T10:17:18;17.90;99.90
52275;DHT22;38228;50.940;4.024;2022-09-14T10:19:52;17.90;99.90
52275;DHT22;38228;50.940;4.024;2022-09-14T10:22:32;18.00;99.90
52275;DHT22;38228;50.940;4.024;2022-09-14T10:25:02;18.10;99.90
52275;DHT22;38228;50.940;4.024;2022-09-14T10:30:09;18.00;99.90
52275;DHT22;38228;50.940;4.024;2022-09-14T10:32:38;17.90;99.90
52275;DHT22;38228;50.940;4.024;2022-09-14T10:35:12;18.00;99.90
52275;DHT22;38228;50.940;4.024;2022-09-14T10:38:23;18.20;99.90
52275;DHT22;38228;50.940;4.024;2022-09-14T10:40:43;18.20;99.90
52275;DHT22;38228;50.940;4.024;2022-09-14T10:46:11;18.10;99.90
52275;DHT22;38228;50.940;4.024;2022-09-14T10:49:11;17.90;99.90
52275;DHT22;38228;50.940;4.024;2022-09-14T10:51:51;18.20;99.90
52275;DHT22;38228;50.940;4.024;2022-09-14T10:54:43;18.20;99.90
52275;DHT22;38228;50.940;4.024;2022-09-14T11:00:12;18.30;99.90
52275;DHT22;38228;50.940;4.024;2022-09-14T11:15:57;17.60;99.90
52275;DHT22;38228;50.940;4.024;2022-09-14T11:21:46;17.60;99.90
52275;DHT22;38228;50.940;4.024;2022-09-14T11:27:31;17.60;99.90
52275;DHT22;38228;50.940;4.024;2022-09-14T11:30:08;17.50;99.90
52275;DHT22;38228;50.940;4.024;2022-09-14T11:33:09;17.50;99.90
52275;DHT22;38228;50.940;4.024;2022-09-14T11:35:46;17.50;99.90
52275;DHT22;38228;50.940;4.024;2022-09-14T11:38:20;17.50;99.90
52275;DHT22;38228;50.940;4.024;2022-09-14T11:41:04;17.50;99.90
52275;DHT22;38228;50.940;4.024;2022-09-14T11:43:57;17.50;99.90
52275;DHT22;38228;50.940;4.024;2022-09-14T11:46:33;17.50;99.90
52275;DHT22;38228;50.940;4.024;2022-09-14T11:52:06;17.50;99.90
52275;DHT22;38228;50.940;4.024;2022-09-14T11:54:38;17.40;99.90
52275;DHT22;38228;50.940;4.024;2022-09-14T11:57:05;17.30;99.90
52275;DHT22;38228;50.940;4.024;2022-09-14T11:59:47;17.30;99.90
52275;DHT22;38228;50.940;4.024;2022-09-14T12:28:46;17.80;99.90
52275;DHT22;38228;50.940;4.024;2022-09-14T12:39:33;17.90;99.90
52275;DHT22;38228;50.940;4.024;2022-09-14T12:42:01;18.00;99.90
52275;DHT22;38228;50.940;4.024;2022-09-14T12:49:54;17.90;99.90
52275;DHT22;38228;50.940;4.024;2022-09-14T12:55:03;17.90;99.90
52275;DHT22;38228;50.940;4.024;2022-09-14T13:00:44;18.00;99.90
52275;DHT22;38228;50.940;4.024;2022-09-14T13:03:35;17.90;99.90
52275;DHT22;38228;50.940;4.024;2022-09-14T13:06:02;17.90;99.90
52275;DHT22;38228;50.940;4.024;2022-09-14T13:08:28;17.90;99.90
52275;DHT22;38228;50.940;4.024;2022-09-14T13:10:53;17.90;99.90
52275;DHT22;38228;50.940;4.024;2022-09-14T13:13:31;18.00;99.90
52275;DHT22;38228;50.940;4.024;2022-09-14T13:16:02;18.00;99.90
52275;DHT22;38228;50.940;4.024;2022-09-14T13:20:58;18.00;99.90
52275;DHT22;38228;50.940;4.024;2022-09-14T13:23:40;18.00;99.90
52275;DHT22;38228;50.940;4.024;2022-09-14T13:26:19;17.90;99.90
52275;DHT22;38228;50.940;4.024;2022-09-14T13:28:48;17.90;99.90
52275;DHT22;38228;50.940;4.024;2022-09-14T13:31:34;17.80;99.90
52275;DHT22;38228;50.940;4.024;2022-09-14T13:34:01;17.80;99.90
52275;DHT22;38228;50.940;4.024;2022-09-14T13:36:32;17.80;99.90
52275;DHT22;38228;50.940;4.024;2022-09-14T13:38:59;17.90;99.90
52275;DHT22;38228;50.940;4.024;2022-09-14T13:41:27;17.90;99.90
52275;DHT22;38228;50.940;4.024;2022-09-14T13:43:54;18.00;99.90
52275;DHT22;38228;50.940;4.024;2022-09-14T13:46:25;17.90;99.90
52275;DHT22;38228;50.940;4.024;2022-09-14T13:48:52;17.80;99.90
52275;DHT22;38228;50.940;4.024;2022-09-14T13:51:23;17.80;99.90
52275;DHT22;38228;50.940;4.024;2022-09-14T13:53:54;17.80;99.90
52275;DHT22;38228;50.940;4.024;2022-09-14T13:56:33;17.80;99.90
52275;DHT22;38228;50.940;4.024;2022-09-14T14:01:42;17.70;99.90
52275;DHT22;38228;50.940;4.024;2022-09-14T14:07:21;17.60;99.90
52275;DHT22;38228;50.940;4.024;2022-09-14T14:09:48;17.60;99.90
52275;DHT22;38228;50.940;4.024;2022-09-14T14:12:26;17.70;99.90
52275;DHT22;38228;50.940;4.024;2022-09-14T14:19:57;17.50;99.90
52275;DHT22;38228;50.940;4.024;2022-09-14T14:22:33;17.50;99.90
52275;DHT22;38228;50.940;4.024;2022-09-14T14:25:15;17.60;99.90
52275;DHT22;38228;50.940;4.024;2022-09-14T14:27:44;17.60;99.90
52275;DHT22;38228;50.940;4.024;2022-09-14T14:32:42;17.60;99.90
52275;DHT22;38228;50.940;4.024;2022-09-14T14:35:17;17.80;99.90
52275;DHT22;38228;50.940;4.024;2022-09-14T14:37:44;17.80;99.90
52275;DHT22;38228;50.940;4.024;2022-09-14T14:40:13;17.80;99.90
52275;DHT22;38228;50.940;4.024;2022-09-14T14:42:38;17.90;99.90
52275;DHT22;38228;50.940;4.024;2022-09-14T14:45:05;17.70;99.90
52275;DHT22;38228;50.940;4.024;2022-09-14T14:47:31;17.70;99.90
52275;DHT22;38228;50.940;4.024;2022-09-14T14:49:58;17.60;99.90
52275;DHT22;38228;50.940;4.024;2022-09-14T14:52:24;17.60;99.90
52275;DHT22;38228;50.940;4.024;2022-09-14T14:54:49;17.50;99.90
52275;DHT22;38228;50.940;4.024;2022-09-14T14:57:15;17.50;99.90
52275;DHT22;38228;50.940;4.024;2022-09-14T14:59:40;17.60;99.90
52275;DHT22;38228;50.940;4.024;2022-09-14T15:02:07;17.70;99.90
52275;DHT22;38228;50.940;4.024;2022-09-14T15:04:33;17.50;99.90
52275;DHT22;38228;50.940;4.024;2022-09-14T15:06:59;17.50;99.90
52275;DHT22;38228;50.940;4.024;2022-09-14T15:09:27;17.40;99.90
52275;DHT22;38228;50.940;4.024;2022-09-14T15:11:54;17.40;99.90
52275;DHT22;38228;50.940;4.024;2022-09-14T15:14:22;17.40;99.90
52275;DHT22;38228;50.940;4.024;2022-09-14T15:16:48;17.30;99.90
52275;DHT22;38228;50.940;4.024;2022-09-14T15:19:14;17.30;99.90
52275;DHT22;38228;50.940;4.024;2022-09-14T15:21:41;17.40;99.90
52275;DHT22;38228;50.940;4.024;2022-09-14T15:24:08;17.50;99.90
52275;DHT22;38228;50.940;4.024;2022-09-14T15:26:34;17.40;99.90
52275;DHT22;38228;50.940;4.024;2022-09-14T15:29:00;17.40;99.90
52275;DHT22;38228;50.940;4.024;2022-09-14T15:31:26;17.40;99.90
52275;DHT22;38228;50.940;4.024;2022-09-14T15:33:51;17.20;99.90
52275;DHT22;38228;50.940;4.024;2022-09-14T15:36:40;17.20;99.90
52275;DHT22;38228;50.940;4.024;2022-09-14T15:39:11;17.00;99.90
52275;DHT22;38228;50.940;4.024;2022-09-14T15:41:37;16.90;99.90
52275;DHT22;38228;50.940;4.024;2022-09-14T15:44:03;16.80;99.90
52275;DHT22;38228;50.940;4.024;2022-09-14T15:46:29;16.70;99.90
52275;DHT22;38228;50.940;4.024;2022-09-14T15:48:55;16.80;99.90
52275;DHT22;38228;50.940;4.024;2022-09-14T15:51:21;16.80;99.90
52275;DHT22;38228;50.940;4.024;2022-09-14T15:53:47;16.80;99.90
52275;DHT22;38228;50.940;4.024;2022-09-14T15:56:14;16.90;99.90
52275;DHT22;38228;50.940;4.024;2022-09-14T15:58:40;16.80;99.90
52275;DHT22;38228;50.940;4.024;2022-09-14T16:01:17;16.80;99.90
52275;DHT22;38228;50.940;4.024;2022-09-14T16:03:43;16.80;99.90
52275;DHT22;38228;50.940;4.024;2022-09-14T16:06:09;16.70;99.90
52275;DHT22;38228;50.940;4.024;2022-09-14T16:08:36;16.80;99.90
52275;DHT22;38228;50.940;4.024;2022-09-14T16:11:03;16.90;99.90
52275;DHT22;38228;50.940;4.024;2022-09-14T16:13:30;16.90;99.90
52275;DHT22;38228;50.940;4.024;2022-09-14T16:16:07;17.00;99.90
52275;DHT22;38228;50.940;4.024;2022-09-14T16:18:34;17.10;99.90
52275;DHT22;38228;50.940;4.024;2022-09-14T16:21:05;17.10;99.90
52275;DHT22;38228;50.940;4.024;2022-09-14T16:23:33;17.00;99.90
52275;DHT22;38228;50.940;4.024;2022-09-14T16:25:59;17.00;99.90
52275;DHT22;38228;50.940;4.024;2022-09-14T16:28:29;17.00;99.90
52275;DHT22;38228;50.940;4.024;2022-09-14T16:31:03;16.90;99.90
52275;DHT22;38228;50.940;4.024;2022-09-14T16:33:29;16.80;99.90
52275;DHT22;38228;50.940;4.024;2022-09-14T16:36:07;16.70;99.90
52275;DHT22;38228;50.940;4.024;2022-09-14T16:38:34;16.80;99.90
52275;DHT22;38228;50.940;4.024;2022-09-14T16:41:01;16.80;99.90
52275;DHT22;38228;50.940;4.024;2022-09-14T16:43:27;16.70;99.90
52275;DHT22;38228;50.940;4.024;2022-09-14T16:46:07;16.70;99.90
52275;DHT22;38228;50.940;4.024;2022-09-14T16:48:35;16.70;99.90
52275;DHT22;38228;50.940;4.024;2022-09-14T16:51:01;16.70;99.90
52275;DHT22;38228;50.940;4.024;2022-09-14T16:53:29;16.70;99.90
52275;DHT22;38228;50.940;4.024;2022-09-14T16:56:04;16.80;99.90
52275;DHT22;38228;50.940;4.024;2022-09-14T16:58:30;16.90;99.90
52275;DHT22;38228;50.940;4.024;2022-09-14T17:01:11;16.80;99.90
52275;DHT22;38228;50.940;4.024;2022-09-14T17:03:37;16.80;99.90
52275;DHT22;38228;50.940;4.024;2022-09-14T17:06:05;16.70;99.90
52275;DHT22;38228;50.940;4.024;2022-09-14T17:08:32;16.70;99.90
52275;DHT22;38228;50.940;4.024;2022-09-14T17:10:59;16.60;99.90
52275;DHT22;38228;50.940;4.024;2022-09-14T17:13:25;16.70;99.90
52275;DHT22;38228;50.940;4.024;2022-09-14T17:15:54;16.80;99.90
52275;DHT22;38228;50.940;4.024;2022-09-14T17:18:23;16.90;99.90
52275;DHT22;38228;50.940;4.024;2022-09-14T17:21:03;17.00;99.90
52275;DHT22;38228;50.940;4.024;2022-09-14T17:23:29;17.00;99.90
52275;DHT22;38228;50.940;4.024;2022-09-14T17:25:55;16.90;99.90
52275;DHT22;38228;50.940;4.024;2022-09-14T17:28:23;16.90;99.90
52275;DHT22;38228;50.940;4.024;2022-09-14T17:30:51;16.90;99.90
52275;DHT22;38228;50.940;4.024;2022-09-14T17:33:17;16.70;99.90
52275;DHT22;38228;50.940;4.024;2022-09-14T17:35:48;16.70;99.90
52275;DHT22;38228;50.940;4.024;2022-09-14T17:38:15;16.70;99.90
52275;DHT22;38228;50.940;4.024;2022-09-14T17:40:41;16.70;99.90
52275;DHT22;38228;50.940;4.024;2022-09-14T17:43:07;16.70;99.90
52275;DHT22;38228;50.940;4.024;2022-09-14T17:45:32;16.70;99.90
52275;DHT22;38228;50.940;4.024;2022-09-14T17:47:58;16.70;99.90
52275;DHT22;38228;50.940;4.024;2022-09-14T17:50:24;16.60;99.90
52275;DHT22;38228;50.940;4.024;2022-09-14T17:52:50;16.60;99.90
52275;DHT22;38228;50.940;4.024;2022-09-14T17:55:16;16.60;99.90
52275;DHT22;38228;50.940;4.024;2022-09-14T17:57:42;16.60;99.90
52275;DHT22;38228;50.940;4.024;2022-09-14T18:00:08;16.70;99.90
52275;DHT22;38228;50.940;4.024;2022-09-14T18:02:34;16.70;99.90
52275;DHT22;38228;50.940;4.024;2022-09-14T18:05:00;16.70;99.90
52275;DHT22;38228;50.940;4.024;2022-09-14T18:07:26;16.70;99.90